sensor_id;sensor_type;location;lat;lon;timestamp;temperature;humidity
74901;DHT22;63461;51.416;6.758;2023-02-18T11:23:24;10.30;99.90
74901;DHT22;63461;51.416;6.758;2023-02-18T11:25:58;10.60;99.90
74901;DHT22;63461;51.416;6.758;2023-02-18T11:28:31;10.50;99.90
74901;DHT22;63461;51.416;6.758;2023-02-18T11:31:00;10.50;99.90
74901;DHT22;63461;51.416;6.758;2023-02-18T11:33:39;10.60;99.90
74901;DHT22;63461;51.416;6.758;2023-02-18T11:36:22;10.50;99.90
74901;DHT22;63461;51.416;6.758;2023-02-18T11:38:55;10.60;99.90
74901;DHT22;63461;51.416;6.758;2023-02-18T11:41:31;10.60;99.90
74901;DHT22;63461;51.416;6.758;2023-02-18T11:43:59;10.50;99.90
74901;DHT22;63461;51.416;6.758;2023-02-18T11:46:26;10.60;99.90
74901;DHT22;63461;51.416;6.758;2023-02-18T11:48:52;10.50;99.90
74901;DHT22;63461;51.416;6.758;2023-02-18T11:53:59;10.60;99.90
74901;DHT22;63461;51.416;6.758;2023-02-18T11:56:29;10.60;99.90
74901;DHT22;63461;51.416;6.758;2023-02-18T11:58:56;10.50;99.90
74901;DHT22;63461;51.416;6.758;2023-02-18T12:01:44;10.60;99.90
74901;DHT22;63461;51.416;6.758;2023-02-18T12:04:20;10.60;99.90
74901;DHT22;63461;51.416;6.758;2023-02-18T12:07:18;10.60;99.90
74901;DHT22;63461;51.416;6.758;2023-02-18T12:10:00;10.60;99.90
74901;DHT22;63461;51.416;6.758;2023-02-18T12:12:31;10.70;99.90
74901;DHT22;63461;51.416;6.758;2023-02-18T12:14:58;10.70;99.90
74901;DHT22;63461;51.416;6.758;2023-02-18T12:26:12;10.80;99.90
74901;DHT22;63461;51.416;6.758;2023-02-18T12:59:26;10.80;99.90
74901;DHT22;63461;51.416;6.758;2023-02-18T13:13:01;10.70;99.90
74901;DHT22;63461;51.416;6.758;2023-02-18T13:18:41;10.70;99.90
74901;DHT22;63461;51.416;6.758;2023-02-18T13:21:13;10.70;99.90
74901;DHT22;63461;51.416;6.758;2023-02-18T13:23:51;10.70;99.90
74901;DHT22;63461;51.416;6.758;2023-02-18T13:26:18;10.80;99.90
74901;DHT22;63461;51.416;6.758;2023-02-18T13:29:15;10.70;99.90
74901;DHT22;63461;51.416;6.758;2023-02-18T13:40:26;10.70;99.90
74901;DHT22;63461;51.416;6.758;2023-02-18T13:42:54;10.70;99.90
74901;DHT22;63461;51.416;6.758;2023-02-18T13:45:40;10.70;99.90
74901;DHT22;63461;51.416;6.758;2023-02-18T13:48:22;10.70;99.90
74901;DHT22;63461;51.416;6.758;2023-02-18T13:51:03;10.80;99.90
74901;DHT22;63461;51.416;6.758;2023-02-18T13:53:35;10.80;99.90
74901;DHT22;63461;51.416;6.758;2023-02-18T14:01:21;10.80;99.90
74901;DHT22;63461;51.416;6.758;2023-02-18T14:03:55;10.90;99.90
74901;DHT22;63461;51.416;6.758;2023-02-18T14:11:54;10.90;99.90
74901;DHT22;63461;51.416;6.758;2023-02-18T14:19:37;10.90;99.90
74901;DHT22;63461;51.416;6.758;2023-02-18T14:27:41;11.10;99.90
74901;DHT22;63461;51.416;6.758;2023-02-18T14:30:34;11.10;99.90
74901;DHT22;63461;51.416;6.758;2023-02-18T14:33:01;11.10;99.90
74901;DHT22;63461;51.416;6.758;2023-02-18T14:51:54;11.10;99.90
74901;DHT22;63461;51.416;6.758;2023-02-18T14:54:24;11.10;99.90
74901;DHT22;63461;51.416;6.758;2023-02-18T14:59:24;11.10;99.90
74901;DHT22;63461;51.416;6.758;2023-02-18T15:01:53;11.00;99.90
74901;DHT22;63461;51.416;6.758;2023-02-18T15:04:20;11.10;99.90
74901;DHT22;63461;51.416;6.758;2023-02-18T15:06:45;11.10;99.90
74901;DHT22;63461;51.416;6.758;2023-02-18T15:09:22;11.00;99.90
74901;DHT22;63461;51.416;6.758;2023-02-18T15:12:00;11.10;99.90
74901;DHT22;63461;51.416;6.758;2023-02-18T15:14:41;11.10;99.90
74901;DHT22;63461;51.416;6.758;2023-02-18T15:17:14;11.10;99.90
74901;DHT22;63461;51.416;6.758;2023-02-18T15:19:43;11.00;99.90
74901;DHT22;63461;51.416;6.758;2023-02-18T15:22:17;11.00;99.90
74901;DHT22;63461;51.416;6.758;2023-02-18T15:24:44;11.00;99.90
74901;DHT22;63461;51.416;6.758;2023-02-18T15:27:12;11.00;99.90
74901;DHT22;63461;51.416;6.758;2023-02-18T15:29:39;11.00;99.90
74901;DHT22;63461;51.416;6.758;2023-02-18T15:32:15;11.00;99.90
74901;DHT22;63461;51.416;6.758;2023-02-18T15:34:42;11.00;99.90
74901;DHT22;63461;51.416;6.758;2023-02-18T15:37:11;11.00;99.90
74901;DHT22;63461;51.416;6.758;2023-02-18T15:39:38;11.00;99.90
74901;DHT22;63461;51.416;6.758;2023-02-18T15:42:30;11.00;99.90
74901;DHT22;63461;51.416;6.758;2023-02-18T15:45:08;11.00;99.90
74901;DHT22;63461;51.416;6.758;2023-02-18T15:47:43;11.00;99.90
74901;DHT22;63461;51.416;6.758;2023-02-18T15:50:21;11.00;99.90
74901;DHT22;63461;51.416;6.758;2023-02-18T15:52:48;11.00;99.90
74901;DHT22;63461;51.416;6.758;2023-02-18T15:55:26;11.00;99.90
74901;DHT22;63461;51.416;6.758;2023-02-18T15:57:53;11.00;99.90
74901;DHT22;63461;51.416;6.758;2023-02-18T16:00:32;11.00;99.90
74901;DHT22;63461;51.416;6.758;2023-02-18T16:05:37;11.00;99.90
74901;DHT22;63461;51.416;6.758;2023-02-18T16:08:16;11.00;99.90
74901;DHT22;63461;51.416;6.758;2023-02-18T16:10:48;11.00;99.90
74901;DHT22;63461;51.416;6.758;2023-02-18T16:13:16;11.10;99.90
74901;DHT22;63461;51.416;6.758;2023-02-18T16:15:45;11.10;99.90
74901;DHT22;63461;51.416;6.758;2023-02-18T16:18:30;11.00;99.90
74901;DHT22;63461;51.416;6.758;2023-02-18T16:21:24;11.00;99.90
74901;DHT22;63461;51.416;6.758;2023-02-18T16:23:56;11.00;99.90
74901;DHT22;63461;51.416;6.758;2023-02-18T16:26:40;10.90;99.90
74901;DHT22;63461;51.416;6.758;2023-02-18T16:31:37;11.00;99.90
74901;DHT22;63461;51.416;6.758;2023-02-18T16:34:03;11.00;99.90
74901;DHT22;63461;51.416;6.758;2023-02-18T16:36:29;11.00;99.90
74901;DHT22;63461;51.416;6.758;2023-02-18T16:38:55;11.00;99.90
74901;DHT22;63461;51.416;6.758;2023-02-18T16:41:23;11.00;99.90
74901;DHT22;63461;51.416;6.758;2023-02-18T16:43:49;11.00;99.90
74901;DHT22;63461;51.416;6.758;2023-02-18T16:46:21;11.00;99.90
74901;DHT22;63461;51.416;6.758;2023-02-18T16:48:52;11.00;99.90
74901;DHT22;63461;51.416;6.758;2023-02-18T16:53:46;11.00;99.90
74901;DHT22;63461;51.416;6.758;2023-02-18T16:56:14;11.00;99.90
74901;DHT22;63461;51.416;6.758;2023-02-18T16:58:41;11.00;99.90
74901;DHT22;63461;51.416;6.758;2023-02-18T17:03:42;11.00;99.90
74901;DHT22;63461;51.416;6.758;2023-02-18T17:06:08;11.00;99.90
74901;DHT22;63461;51.416;6.758;2023-02-18T17:08:34;11.00;99.90
74901;DHT22;63461;51.416;6.758;2023-02-18T17:11:00;11.00;99.90
74901;DHT22;63461;51.416;6.758;2023-02-18T17:13:28;11.00;99.90
74901;DHT22;63461;51.416;6.758;2023-02-18T17:15:55;11.00;99.90
74901;DHT22;63461;51.416;6.758;2023-02-18T17:18:21;11.00;99.90
74901;DHT22;63461;51.416;6.758;2023-02-18T17:20:49;11.00;99.90
74901;DHT22;63461;51.416;6.758;2023-02-18T17:23:18;11.00;99.90
74901;DHT22;63461;51.416;6.758;2023-02-18T17:25:46;11.00;99.90
74901;DHT22;63461;51.416;6.758;2023-02-18T17:28:13;11.00;99.90
74901;DHT22;63461;51.416;6.758;2023-02-18T17:30:44;11.00;99.90
74901;DHT22;63461;51.416;6.758;2023-02-18T17:33:14;11.00;99.90
74901;DHT22;63461;51.416;6.758;2023-02-18T17:35:41;10.90;99.90
74901;DHT22;63461;51.416;6.758;2023-02-18T17:38:10;11.00;99.90
74901;DHT22;63461;51.416;6.758;2023-02-18T17:40:36;11.00;99.90
74901;DHT22;63461;51.416;6.758;2023-02-18T17:43:02;11.00;99.90
74901;DHT22;63461;51.416;6.758;2023-02-18T17:45:37;11.00;99.90
74901;DHT22;63461;51.416;6.758;2023-02-18T17:48:05;11.00;99.90
74901;DHT22;63461;51.416;6.758;2023-02-18T17:50:31;11.00;99.90
74901;DHT22;63461;51.416;6.758;2023-02-18T17:52:57;11.00;99.90
74901;DHT22;63461;51.416;6.758;2023-02-18T17:55:35;11.00;99.90
74901;DHT22;63461;51.416;6.758;2023-02-18T17:58:01;11.00;99.90
74901;DHT22;63461;51.416;6.758;2023-02-18T18:00:37;11.00;99.90
74901;DHT22;63461;51.416;6.758;2023-02-18T18:03:03;11.00;99.90
74901;DHT22;63461;51.416;6.758;2023-02-18T18:05:34;11.00;99.90
74901;DHT22;63461;51.416;6.758;2023-02-18T18:08:02;11.00;99.90
74901;DHT22;63461;51.416;6.758;2023-02-18T18:10:31;11.00;99.90
74901;DHT22;63461;51.416;6.758;2023-02-18T18:12:59;11.00;99.90
74901;DHT22;63461;51.416;6.758;2023-02-18T18:15:32;10.90;99.90
74901;DHT22;63461;51.416;6.758;2023-02-18T18:18:01;11.00;99.90
74901;DHT22;63461;51.416;6.758;2023-02-18T18:20:30;11.00;99.90
74901;DHT22;63461;51.416;6.758;2023-02-18T18:22:57;10.90;99.90
74901;DHT22;63461;51.416;6.758;2023-02-18T18:27:52;11.00;99.90
74901;DHT22;63461;51.416;6.758;2023-02-18T18:30:27;11.00;99.90
74901;DHT22;63461;51.416;6.758;2023-02-18T18:32:53;11.00;99.90
74901;DHT22;63461;51.416;6.758;2023-02-18T18:35:34;11.00;99.90
74901;DHT22;63461;51.416;6.758;2023-02-18T18:38:01;11.00;99.90
74901;DHT22;63461;51.416;6.758;2023-02-18T18:40:29;11.00;99.90
74901;DHT22;63461;51.416;6.758;2023-02-18T18:42:56;11.00;99.90
74901;DHT22;63461;51.416;6.758;2023-02-18T18:45:33;11.00;99.90
74901;DHT22;63461;51.416;6.758;2023-02-18T18:48:03;10.90;99.90
74901;DHT22;63461;51.416;6.758;2023-02-18T18:50:29;11.00;99.90
74901;DHT22;63461;51.416;6.758;2023-02-18T18:52:54;10.90;99.90
74901;DHT22;63461;51.416;6.758;2023-02-18T18:55:31;10.90;99.90
74901;DHT22;63461;51.416;6.758;2023-02-18T18:57:57;10.90;99.90
74901;DHT22;63461;51.416;6.758;2023-02-18T19:00:27;10.90;99.90
74901;DHT22;63461;51.416;6.758;2023-02-18T19:02:53;10.90;99.90
74901;DHT22;63461;51.416;6.758;2023-02-18T19:05:23;10.90;99.90
74901;DHT22;63461;51.416;6.758;2023-02-18T19:07:49;10.80;99.90
74901;DHT22;63461;51.416;6.758;2023-02-18T19:10:16;10.80;99.90
74901;DHT22;63461;51.416;6.758;2023-02-18T19:12:42;10.80;99.90
74901;DHT22;63461;51.416;6.758;2023-02-18T19:15:13;10.80;99.90
74901;DHT22;63461;51.416;6.758;2023-02-18T19:17:44;10.80;99.90
74901;DHT22;63461;51.416;6.758;2023-02-18T19:20:15;10.80;99.90
74901;DHT22;63461;51.416;6.758;2023-02-18T19:22:41;10.90;99.90
74901;DHT22;63461;51.416;6.758;2023-02-18T19:25:07;10.90;99.90
74901;DHT22;63461;51.416;6.758;2023-02-18T19:27:36;10.90;99.90
74901;DHT22;63461;51.416;6.758;2023-02-18T19:30:03;10.90;99.90
74901;DHT22;63461;51.416;6.758;2023-02-18T19:32:29;10.90;99.90
74901;DHT22;63461;51.416;6.758;2023-02-18T19:34:54;10.90;99.90
74901;DHT22;63461;51.416;6.758;2023-02-18T19:37:20;10.90;99.90
74901;DHT22;63461;51.416;6.758;2023-02-18T19:39:46;10.90;99.90
74901;DHT22;63461;51.416;6.758;2023-02-18T19:42:12;10.90;99.90
74901;DHT22;63461;51.416;6.758;2023-02-18T19:44:38;10.90;99.90
74901;DHT22;63461;51.416;6.758;2023-02-18T19:47:03;10.80;99.90
74901;DHT22;63461;51.416;6.758;2023-02-18T19:49:29;10.90;99.90
74901;DHT22;63461;51.416;6.758;2023-02-18T19:51:55;10.90;99.90
74901;DHT22;63461;51.416;6.758;2023-02-18T19:54:30;10.90;99.90
74901;DHT22;63461;51.416;6.758;2023-02-18T19:56:56;10.90;99.90
74901;DHT22;63461;51.416;6.758;2023-02-18T19:59:22;10.90;99.90
74901;DHT22;63461;51.416;6.758;2023-02-18T20:01:48;10.90;99.90
74901;DHT22;63461;51.416;6.758;2023-02-18T20:04:14;10.90;99.90
74901;DHT22;63461;51.416;6.758;2023-02-18T20:06:40;10.90;99.90
74901;DHT22;63461;51.416;6.758;2023-02-18T20:09:06;10.90;99.90
74901;DHT22;63461;51.416;6.758;2023-02-18T20:11:32;10.90;99.90
74901;DHT22;63461;51.416;6.758;2023-02-18T20:13:57;10.90;99.90
74901;DHT22;63461;51.416;6.758;2023-02-18T20:16:23;10.90;99.90
74901;DHT22;63461;51.416;6.758;2023-02-18T20:18:49;10.90;99.90
74901;DHT22;63461;51.416;6.758;2023-02-18T20:21:15;10.90;99.90
74901;DHT22;63461;51.416;6.758;2023-02-18T20:23:40;10.90;99.90
74901;DHT22;63461;51.416;6.758;2023-02-18T20:26:10;10.90;99.90
74901;DHT22;63461;51.416;6.758;2023-02-18T20:28:37;10.90;99.90
74901;DHT22;63461;51.416;6.758;2023-02-18T20:31:07;10.90;99.90
74901;DHT22;63461;51.416;6.758;2023-02-18T20:33:34;10.90;99.90
74901;DHT22;63461;51.416;6.758;2023-02-18T20:36:00;10.90;99.90
74901;DHT22;63461;51.416;6.758;2023-02-18T20:38:29;10.90;99.90
74901;DHT22;63461;51.416;6.758;2023-02-18T20:41:08;10.90;99.90
74901;DHT22;63461;51.416;6.758;2023-02-18T20:43:36;10.90;99.90
74901;DHT22;63461;51.416;6.758;2023-02-18T20:46:04;10.90;99.90
74901;DHT22;63461;51.416;6.758;2023-02-18T20:48:32;10.90;99.90
74901;DHT22;63461;51.416;6.758;2023-02-18T20:51:03;10.90;99.90
74901;DHT22;63461;51.416;6.758;2023-02-18T20:53:30;10.90;99.90
74901;DHT22;63461;51.416;6.758;2023-02-18T20:55:56;10.90;99.90
74901;DHT22;63461;51.416;6.758;2023-02-18T20:58:22;10.90;99.90
74901;DHT22;63461;51.416;6.758;2023-02-18T21:01:16;10.90;99.90
74901;DHT22;63461;51.416;6.758;2023-02-18T21:03:45;10.90;99.90
74901;DHT22;63461;51.416;6.758;2023-02-18T21:06:14;10.90;99.90
74901;DHT22;63461;51.416;6.758;2023-02-18T21:08:41;10.90;99.90
74901;DHT22;63461;51.416;6.758;2023-02-18T21:11:10;10.90;99.90
74901;DHT22;63461;51.416;6.758;2023-02-18T21:13:36;10.90;99.90
74901;DHT22;63461;51.416;6.758;2023-02-18T21:16:03;10.90;99.90
74901;DHT22;63461;51.416;6.758;2023-02-18T21:18:30;10.90;99.90
74901;DHT22;63461;51.416;6.758;2023-02-18T21:20:56;10.90;99.90
74901;DHT22;63461;51.416;6.758;2023-02-18T21:23:22;10.90;99.90
74901;DHT22;63461;51.416;6.758;2023-02-18T21:25:47;10.90;99.90
74901;DHT22;63461;51.416;6.758;2023-02-18T21:28:14;10.90;99.90
74901;DHT22;63461;51.416;6.758;2023-02-18T21:30:42;10.90;99.90
74901;DHT22;63461;51.416;6.758;2023-02-18T21:33:10;10.90;99.90
74901;DHT22;63461;51.416;6.758;2023-02-18T21:35:38;10.90;99.90
74901;DHT22;63461;51.416;6.758;2023-02-18T21:38:04;10.90;99.90
74901;DHT22;63461;51.416;6.758;2023-02-18T21:40:31;10.90;99.90
74901;DHT22;63461;51.416;6.758;2023-02-18T21:42:59;10.90;99.90
74901;DHT22;63461;51.416;6.758;2023-02-18T21:45:26;10.90;99.90
74901;DHT22;63461;51.416;6.758;2023-02-18T21:47:54;10.90;99.90
74901;DHT22;63461;51.416;6.758;2023-02-18T21:50:20;10.90;99.90
74901;DHT22;63461;51.416;6.758;2023-02-18T21:52:46;10.90;99.90
74901;DHT22;63461;51.416;6.758;2023-02-18T21:55:12;10.90;99.90
74901;DHT22;63461;51.416;6.758;2023-02-18T21:57:37;10.90;99.90
74901;DHT22;63461;51.416;6.758;2023-02-18T22:00:04;10.90;99.90
74901;DHT22;63461;51.416;6.758;2023-02-18T22:02:38;10.80;99.90
74901;DHT22;63461;51.416;6.758;2023-02-18T22:05:03;10.80;99.90
74901;DHT22;63461;51.416;6.758;2023-02-18T22:07:33;10.90;99.90
74901;DHT22;63461;51.416;6.758;2023-02-18T22:09:59;10.80;99.90
74901;DHT22;63461;51.416;6.758;2023-02-18T22:12:25;10.80;99.90
74901;DHT22;63461;51.416;6.758;2023-02-18T22:14:51;10.80;99.90
74901;DHT22;63461;51.416;6.758;2023-02-18T22:17:17;10.80;99.90
74901;DHT22;63461;51.416;6.758;2023-02-18T22:19:43;10.90;99.90
74901;DHT22;63461;51.416;6.758;2023-02-18T22:22:08;10.90;99.90
74901;DHT22;63461;51.416;6.758;2023-02-18T22:24:34;10.90;99.90
74901;DHT22;63461;51.416;6.758;2023-02-18T22:27:00;10.90;99.90
74901;DHT22;63461;51.416;6.758;2023-02-18T22:29:28;10.90;99.90
74901;DHT22;63461;51.416;6.758;2023-02-18T22:31:54;10.90;99.90
74901;DHT22;63461;51.416;6.758;2023-02-18T22:34:20;10.90;99.90
74901;DHT22;63461;51.416;6.758;2023-02-18T22:36:47;10.90;99.90
74901;DHT22;63461;51.416;6.758;2023-02-18T22:39:13;10.90;99.90
74901;DHT22;63461;51.416;6.758;2023-02-18T22:41:40;10.90;99.90
74901;DHT22;63461;51.416;6.758;2023-02-18T22:44:09;10.90;99.90
74901;DHT22;63461;51.416;6.758;2023-02-18T22:46:36;10.90;99.90
74901;DHT22;63461;51.416;6.758;2023-02-18T22:49:03;10.90;99.90
74901;DHT22;63461;51.416;6.758;2023-02-18T22:51:35;10.90;99.90
74901;DHT22;63461;51.416;6.758;2023-02-18T22:54:06;10.90;99.90
74901;DHT22;63461;51.416;6.758;2023-02-18T22:56:32;10.90;99.90
74901;DHT22;63461;51.416;6.758;2023-02-18T22:58:58;10.90;99.90
74901;DHT22;63461;51.416;6.758;2023-02-18T23:01:32;10.90;99.90
74901;DHT22;63461;51.416;6.758;2023-02-18T23:04:05;10.90;99.90
74901;DHT22;63461;51.416;6.758;2023-02-18T23:06:32;10.90;99.90
74901;DHT22;63461;51.416;6.758;2023-02-18T23:08:58;10.90;99.90
74901;DHT22;63461;51.416;6.758;2023-02-18T23:11:24;10.90;99.90
74901;DHT22;63461;51.416;6.758;2023-02-18T23:13:50;10.90;99.90
74901;DHT22;63461;51.416;6.758;2023-02-18T23:16:37;10.90;99.90
74901;DHT22;63461;51.416;6.758;2023-02-18T23:19:22;10.90;99.90
74901;DHT22;63461;51.416;6.758;2023-02-18T23:21:49;10.90;99.90
74901;DHT22;63461;51.416;6.758;2023-02-18T23:24:15;10.90;99.90
74901;DHT22;63461;51.416;6.758;2023-02-18T23:26:41;10.80;99.90
74901;DHT22;63461;51.416;6.758;2023-02-18T23:29:07;10.80;99.90
74901;DHT22;63461;51.416;6.758;2023-02-18T23:31:33;10.80;99.90
74901;DHT22;63461;51.416;6.758;2023-02-18T23:34:02;10.90;99.90
74901;DHT22;63461;51.416;6.758;2023-02-18T23:36:30;10.90;99.90
74901;DHT22;63461;51.416;6.758;2023-02-18T23:39:01;10.80;99.90
74901;DHT22;63461;51.416;6.758;2023-02-18T23:41:28;10.80;99.90
74901;DHT22;63461;51.416;6.758;2023-02-18T23:43:54;10.90;99.90
74901;DHT22;63461;51.416;6.758;2023-02-18T23:46:23;10.80;99.90
74901;DHT22;63461;51.416;6.758;2023-02-18T23:48:49;10.90;99.90
74901;DHT22;63461;51.416;6.758;2023-02-18T23:51:18;10.90;99.90
74901;DHT22;63461;51.416;6.758;2023-02-18T23:53:44;10.90;99.90
74901;DHT22;63461;51.416;6.758;2023-02-18T23:58:42;10.80;99.90
